Time;durP1;ratioP1;P1;durP2;ratioP2;P2;SDS_P1;SDS_P2;PMS_P1;PMS_P2;Temp;Humidity;BMP_temperature;BMP_pressure;BME280_temperature;BME280_humidity;BME280_pressure;Samples;Min_cycle;Max_cycle;Signal;HPM_P1;HPM_P2
2023/01/25 00:01:04;;;;;;;15.13;10.97;;;;;;;;;;4991746;28;20242;-87
2023/01/25 00:03:32;;;;;;;16.07;10.93;;;;;;;;;;4992347;28;20638;-87
2023/01/25 00:06:00;;;;;;;15.40;10.50;;;;;;;;;;4991542;28;20236;-86
2023/01/25 00:08:27;;;;;;;14.90;10.90;;;;;;;;;;4992869;28;20204;-87
2023/01/25 00:10:54;;;;;;;13.67;10.63;;;;;;;;;;4991559;28;20251;-87
2023/01/25 00:13:21;;;;;;;16.33;11.70;;;;;;;;;;4992329;28;20215;-87
2023/01/25 00:15:48;;;;;;;16.63;11.53;;;;;;;;;;4991775;28;20243;-87
2023/01/25 00:18:15;;;;;;;17.27;11.53;;;;;;;;;;4985084;28;20217;-87
2023/01/25 00:20:44;;;;;;;15.23;10.80;;;;;;;;;;4972108;28;20236;-92
2023/01/25 00:23:11;;;;;;;16.60;11.70;;;;;;;;;;4984501;28;20212;-92
2023/01/25 00:25:38;;;;;;;15.43;11.17;;;;;;;;;;4993122;28;20728;-93
2023/01/25 00:28:05;;;;;;;13.30;10.37;;;;;;;;;;4976407;28;20197;-92
2023/01/25 00:30:32;;;;;;;14.13;10.80;;;;;;;;;;4974174;28;20244;-92
2023/01/25 00:33:03;;;;;;;14.57;11.37;;;;;;;;;;4980983;28;20220;-92
2023/01/25 00:35:31;;;;;;;15.37;11.60;;;;;;;;;;4991979;28;20236;-92
2023/01/25 00:38:01;;;;;;;17.07;11.83;;;;;;;;;;4983101;28;20256;-93
2023/01/25 00:40:28;;;;;;;17.67;12.23;;;;;;;;;;4974036;28;20247;-93
2023/01/25 00:42:55;;;;;;;15.00;11.50;;;;;;;;;;4975155;28;20733;-92
2023/01/25 00:45:23;;;;;;;17.53;10.57;;;;;;;;;;4974219;28;20244;-92
2023/01/25 00:47:50;;;;;;;15.23;10.33;;;;;;;;;;4987167;28;20208;-92
2023/01/25 00:50:17;;;;;;;14.07;10.80;;;;;;;;;;4993204;28;20259;-92
2023/01/25 00:52:44;;;;;;;13.57;10.70;;;;;;;;;;4995906;28;20227;-93
2023/01/25 00:55:12;;;;;;;13.83;10.27;;;;;;;;;;4996856;28;20240;-93
2023/01/25 00:57:39;;;;;;;15.30;11.50;;;;;;;;;;4997209;28;20231;-92
2023/01/25 01:00:07;;;;;;;14.73;11.13;;;;;;;;;;4996483;28;20235;-92
2023/01/25 01:02:34;;;;;;;15.67;10.70;;;;;;;;;;4983728;28;20193;-93
2023/01/25 01:05:01;;;;;;;16.33;11.27;;;;;;;;;;4978356;28;20247;-92
2023/01/25 01:07:28;;;;;;;14.97;11.80;;;;;;;;;;4996720;28;20209;-93
2023/01/25 01:09:55;;;;;;;19.87;12.47;;;;;;;;;;4996365;28;20242;-93
2023/01/25 01:12:24;;;;;;;15.70;12.03;;;;;;;;;;4997085;28;20294;-92
2023/01/25 01:14:51;;;;;;;15.87;12.20;;;;;;;;;;4996607;28;20236;-92
2023/01/25 01:17:18;;;;;;;15.17;11.07;;;;;;;;;;4996843;28;20224;-92
2023/01/25 01:19:45;;;;;;;13.67;10.67;;;;;;;;;;4996433;28;20599;-92
2023/01/25 01:22:12;;;;;;;14.73;10.73;;;;;;;;;;4996844;28;20686;-93
2023/01/25 01:24:39;;;;;;;15.03;11.43;;;;;;;;;;4995895;28;20247;-93
2023/01/25 01:27:06;;;;;;;16.13;12.20;;;;;;;;;;4997370;28;20208;-92
2023/01/25 01:29:35;;;;;;;17.37;12.20;;;;;;;;;;4999912;28;20231;-93
2023/01/25 01:32:02;;;;;;;17.43;11.93;;;;;;;;;;5012859;28;20228;-92
2023/01/25 01:34:29;;;;;;;17.07;11.93;;;;;;;;;;5007684;28;20235;-92
2023/01/25 01:36:56;;;;;;;14.30;11.37;;;;;;;;;;4997396;28;20208;-91
2023/01/25 01:39:24;;;;;;;19.67;11.40;;;;;;;;;;4996480;28;20208;-91
2023/01/25 01:41:51;;;;;;;17.10;12.53;;;;;;;;;;4980756;28;20243;-93
2023/01/25 01:44:19;;;;;;;18.37;12.03;;;;;;;;;;4976355;28;20216;-93
2023/01/25 01:46:49;;;;;;;15.00;11.23;;;;;;;;;;4976873;28;20221;-93
2023/01/25 01:49:19;;;;;;;14.53;10.83;;;;;;;;;;4976365;28;20201;-93
2023/01/25 01:51:48;;;;;;;15.93;11.50;;;;;;;;;;4978678;28;20609;-93
2023/01/25 01:54:16;;;;;;;14.63;10.97;;;;;;;;;;4985677;28;20205;-93
2023/01/25 01:56:47;;;;;;;17.33;12.77;;;;;;;;;;4976705;28;20595;-92
2023/01/25 01:59:16;;;;;;;17.07;12.90;;;;;;;;;;4975047;28;20220;-93
2023/01/25 02:01:44;;;;;;;15.47;11.07;;;;;;;;;;4979005;28;20649;-91
2023/01/25 02:04:13;;;;;;;18.13;12.30;;;;;;;;;;4995585;28;20204;-92
2023/01/25 02:06:44;;;;;;;20.90;13.00;;;;;;;;;;4991824;28;20209;-92
2023/01/25 02:09:12;;;;;;;16.93;11.67;;;;;;;;;;4985684;28;20212;-92
2023/01/25 02:11:39;;;;;;;19.33;13.07;;;;;;;;;;4995971;28;20231;-93
2023/01/25 02:14:07;;;;;;;17.17;11.30;;;;;;;;;;4995687;28;20211;-92
2023/01/25 02:16:34;;;;;;;13.50;10.60;;;;;;;;;;4994960;28;20236;-92
2023/01/25 02:19:02;;;;;;;15.80;10.97;;;;;;;;;;4995834;28;20228;-92
2023/01/25 02:21:34;;;;;;;14.87;10.90;;;;;;;;;;4976797;28;20326;-92
2023/01/25 02:24:05;;;;;;;18.37;12.17;;;;;;;;;;4983581;28;20203;-93
2023/01/25 02:26:34;;;;;;;18.27;12.50;;;;;;;;;;4995291;28;20235;-93
2023/01/25 02:29:02;;;;;;;18.33;13.43;;;;;;;;;;4995693;28;20219;-93
2023/01/25 02:31:29;;;;;;;13.80;9.80;;;;;;;;;;4994792;28;20319;-93
2023/01/25 02:33:56;;;;;;;15.27;10.47;;;;;;;;;;4995587;28;20233;-92
2023/01/25 02:36:26;;;;;;;16.80;10.60;;;;;;;;;;4995329;28;20239;-93
2023/01/25 02:38:55;;;;;;;16.93;11.07;;;;;;;;;;4995284;28;20223;-93
2023/01/25 02:41:25;;;;;;;14.80;10.97;;;;;;;;;;4991012;28;20638;-92
2023/01/25 02:43:53;;;;;;;17.47;12.10;;;;;;;;;;4976073;28;20611;-94
2023/01/25 02:46:24;;;;;;;17.90;12.20;;;;;;;;;;4985205;28;20232;-92
2023/01/25 02:48:51;;;;;;;16.20;11.23;;;;;;;;;;4981721;28;20559;-93
2023/01/25 02:51:18;;;;;;;16.90;11.73;;;;;;;;;;4975040;28;20241;-93
2023/01/25 02:53:46;;;;;;;15.53;11.73;;;;;;;;;;4975540;28;20221;-92
2023/01/25 02:56:13;;;;;;;14.77;10.87;;;;;;;;;;4989163;28;20231;-93
2023/01/25 02:58:40;;;;;;;14.33;10.90;;;;;;;;;;4982465;28;20233;-93
2023/01/25 03:01:09;;;;;;;14.80;10.20;;;;;;;;;;4976675;28;20241;-93
2023/01/25 03:03:36;;;;;;;17.30;11.77;;;;;;;;;;4982802;28;20211;-93
2023/01/25 03:06:03;;;;;;;16.57;11.97;;;;;;;;;;4994800;28;20240;-93
2023/01/25 03:08:30;;;;;;;13.03;10.57;;;;;;;;;;4995310;28;20204;-93
2023/01/25 03:10:58;;;;;;;16.47;11.70;;;;;;;;;;4994176;28;20251;-92
2023/01/25 03:13:25;;;;;;;15.90;11.17;;;;;;;;;;4995386;28;20207;-92
2023/01/25 03:15:52;;;;;;;18.93;13.13;;;;;;;;;;4993988;28;20236;-93
2023/01/25 03:18:21;;;;;;;18.60;12.43;;;;;;;;;;4994766;28;20598;-92
2023/01/25 03:20:48;;;;;;;19.67;12.63;;;;;;;;;;4994335;28;20244;-93
2023/01/25 03:23:15;;;;;;;20.10;12.97;;;;;;;;;;4991999;28;20574;-92
2023/01/25 03:25:42;;;;;;;18.57;11.97;;;;;;;;;;4975183;28;20240;-93
2023/01/25 03:28:09;;;;;;;17.77;12.33;;;;;;;;;;4976353;28;20219;-92
2023/01/25 03:30:36;;;;;;;17.67;12.23;;;;;;;;;;4989336;28;20282;-93
2023/01/25 03:33:03;;;;;;;17.37;11.93;;;;;;;;;;5000916;28;20207;-92
2023/01/25 03:35:32;;;;;;;15.97;10.90;;;;;;;;;;4976051;28;20236;-92
2023/01/25 03:37:59;;;;;;;15.27;11.57;;;;;;;;;;4995202;28;20224;-93
2023/01/25 03:40:26;;;;;;;18.60;12.33;;;;;;;;;;4985464;28;20233;-92
2023/01/25 03:42:53;;;;;;;15.90;11.73;;;;;;;;;;4985052;28;20695;-93
2023/01/25 03:45:20;;;;;;;15.30;10.27;;;;;;;;;;4989297;28;20591;-92
2023/01/25 03:47:47;;;;;;;15.57;10.57;;;;;;;;;;4974851;28;20681;-92
2023/01/25 03:50:14;;;;;;;14.00;10.03;;;;;;;;;;4974207;28;20252;-93
2023/01/25 03:52:45;;;;;;;17.20;11.13;;;;;;;;;;4993005;28;20203;-92
2023/01/25 03:55:12;;;;;;;18.37;12.17;;;;;;;;;;4993926;28;20617;-93
2023/01/25 03:57:39;;;;;;;16.40;11.63;;;;;;;;;;4993214;28;20208;-93
2023/01/25 04:00:07;;;;;;;17.93;11.67;;;;;;;;;;4985345;28;20294;-91
2023/01/25 04:02:34;;;;;;;19.07;12.10;;;;;;;;;;4994581;28;20251;-92
2023/01/25 04:05:01;;;;;;;18.37;11.97;;;;;;;;;;4993357;28;20243;-93
2023/01/25 04:07:28;;;;;;;15.63;11.20;;;;;;;;;;4994353;28;20200;-93
2023/01/25 04:09:56;;;;;;;17.90;12.20;;;;;;;;;;4983411;28;20243;-92
2023/01/25 04:12:23;;;;;;;16.97;11.73;;;;;;;;;;4991083;28;20292;-92
2023/01/25 04:14:56;;;;;;;19.70;13.23;;;;;;;;;;4980917;28;20237;-92
2023/01/25 04:17:23;;;;;;;16.67;12.03;;;;;;;;;;4977791;28;20200;-92
2023/01/25 04:19:50;;;;;;;19.00;12.57;;;;;;;;;;4993800;28;20703;-92
2023/01/25 04:22:17;;;;;;;15.97;11.70;;;;;;;;;;4994296;28;20254;-91
2023/01/25 04:24:44;;;;;;;19.17;13.13;;;;;;;;;;4993716;28;20243;-92
2023/01/25 04:27:13;;;;;;;21.63;13.03;;;;;;;;;;4988412;28;20764;-92
2023/01/25 04:29:40;;;;;;;18.93;12.73;;;;;;;;;;4997426;28;20602;-93
2023/01/25 04:32:07;;;;;;;20.13;12.63;;;;;;;;;;4980182;28;20208;-93
2023/01/25 04:34:34;;;;;;;20.87;12.67;;;;;;;;;;4984951;28;20239;-93
2023/01/25 04:37:01;;;;;;;18.30;12.33;;;;;;;;;;5001449;28;20578;-93
2023/01/25 04:39:28;;;;;;;17.43;12.17;;;;;;;;;;4995944;28;20244;-93
2023/01/25 04:41:55;;;;;;;19.17;12.13;;;;;;;;;;4977717;28;20221;-93
2023/01/25 04:44:24;;;;;;;16.57;11.23;;;;;;;;;;4977758;28;20670;-93
2023/01/25 04:46:51;;;;;;;18.17;11.37;;;;;;;;;;4978566;28;20299;-92
2023/01/25 04:49:18;;;;;;;17.70;12.97;;;;;;;;;;4977960;28;20208;-93
2023/01/25 04:51:45;;;;;;;14.77;10.77;;;;;;;;;;4978395;28;20247;-93
2023/01/25 04:54:12;;;;;;;15.60;10.97;;;;;;;;;;4977802;28;20211;-92
2023/01/25 04:56:39;;;;;;;17.13;11.80;;;;;;;;;;4978415;28;20208;-92
2023/01/25 04:59:06;;;;;;;17.80;11.87;;;;;;;;;;4977702;28;20236;-93
2023/01/25 05:01:35;;;;;;;14.50;10.37;;;;;;;;;;4976876;28;20224;-87
2023/01/25 05:04:02;;;;;;;15.83;11.10;;;;;;;;;;4975843;28;20272;-87
2023/01/25 05:06:29;;;;;;;16.23;11.07;;;;;;;;;;4977297;28;20704;-87
2023/01/25 05:08:56;;;;;;;18.70;11.30;;;;;;;;;;4979594;28;20207;-86
2023/01/25 05:11:23;;;;;;;17.07;11.23;;;;;;;;;;4994290;28;20247;-86
2023/01/25 05:13:50;;;;;;;17.50;12.27;;;;;;;;;;4988562;28;20205;-85
2023/01/25 05:16:18;;;;;;;20.20;12.37;;;;;;;;;;4975192;28;20236;-87
2023/01/25 05:18:46;;;;;;;18.93;12.03;;;;;;;;;;4975372;28;20701;-86
2023/01/25 05:23:54;;;;;;;23.57;12.70;;;;;;;;;;4974905;28;20287;-87
2023/01/25 05:29:09;;;;;;;16.60;11.80;;;;;;;;;;4958148;28;20204;-87
2023/01/25 05:31:36;;;;;;;14.83;11.37;;;;;;;;;;4980940;28;20219;-87
2023/01/25 05:34:04;;;;;;;18.70;11.50;;;;;;;;;;5008777;28;20204;-88
2023/01/25 05:36:31;;;;;;;17.37;11.07;;;;;;;;;;4993624;28;20224;-88
2023/01/25 05:38:58;;;;;;;21.13;12.90;;;;;;;;;;4979348;28;20360;-90
2023/01/25 05:41:25;;;;;;;17.53;12.17;;;;;;;;;;4974706;28;20640;-86
2023/01/25 05:43:52;;;;;;;19.13;12.03;;;;;;;;;;4975451;28;20700;-89
2023/01/25 05:46:19;;;;;;;18.83;12.67;;;;;;;;;;4974545;28;20232;-86
2023/01/25 05:48:47;;;;;;;17.47;11.53;;;;;;;;;;4974337;28;20204;-87
2023/01/25 05:51:16;;;;;;;17.77;11.13;;;;;;;;;;4974136;28;20268;-87
2023/01/25 05:53:43;;;;;;;18.20;12.00;;;;;;;;;;4974224;28;20205;-87
2023/01/25 05:56:10;;;;;;;18.83;12.27;;;;;;;;;;4974669;28;20237;-88
2023/01/25 05:58:38;;;;;;;17.23;11.97;;;;;;;;;;4974665;28;20713;-88
2023/01/25 06:01:06;;;;;;;16.93;11.17;;;;;;;;;;4973954;28;20237;-87
2023/01/25 06:03:33;;;;;;;20.37;12.43;;;;;;;;;;4974714;28;20217;-88
2023/01/25 06:06:01;;;;;;;15.97;11.30;;;;;;;;;;4974057;28;20239;-86
2023/01/25 06:08:30;;;;;;;14.57;10.77;;;;;;;;;;4974917;28;20212;-89
2023/01/25 06:10:57;;;;;;;21.57;12.30;;;;;;;;;;4975124;28;20239;-88
2023/01/25 06:13:25;;;;;;;19.00;12.77;;;;;;;;;;4974237;28;20204;-87
2023/01/25 06:15:52;;;;;;;16.27;11.43;;;;;;;;;;4974042;28;20240;-88
2023/01/25 06:18:20;;;;;;;19.33;12.37;;;;;;;;;;4974319;28;20224;-88
2023/01/25 06:20:47;;;;;;;17.40;11.00;;;;;;;;;;4973954;28;20241;-88
2023/01/25 06:23:14;;;;;;;17.97;11.70;;;;;;;;;;4974183;28;20220;-88
2023/01/25 06:25:43;;;;;;;15.93;10.47;;;;;;;;;;4973736;28;20243;-88
2023/01/25 06:28:10;;;;;;;17.83;11.90;;;;;;;;;;4974075;28;20680;-87
2023/01/25 06:30:37;;;;;;;16.13;11.00;;;;;;;;;;4973458;28;20618;-88
2023/01/25 06:33:04;;;;;;;17.83;11.73;;;;;;;;;;4974251;28;20208;-88
2023/01/25 06:35:32;;;;;;;18.63;11.20;;;;;;;;;;4973525;28;20239;-87
2023/01/25 06:37:59;;;;;;;18.17;11.67;;;;;;;;;;4973953;28;20205;-88
2023/01/25 06:40:29;;;;;;;23.70;12.37;;;;;;;;;;4973273;28;20248;-87
2023/01/25 06:43:06;;;;;;;17.77;11.43;;;;;;;;;;4978582;28;20212;-87
2023/01/25 06:45:33;;;;;;;21.23;11.27;;;;;;;;;;4990122;28;20246;-88
2023/01/25 06:48:00;;;;;;;21.30;12.53;;;;;;;;;;4992970;28;20204;-87
2023/01/25 06:50:27;;;;;;;22.13;13.23;;;;;;;;;;4991696;28;20251;-88
2023/01/25 06:52:54;;;;;;;18.27;11.90;;;;;;;;;;4993905;28;20221;-88
2023/01/25 06:55:21;;;;;;;17.93;11.30;;;;;;;;;;4993961;28;20230;-88
2023/01/25 06:57:49;;;;;;;18.83;11.57;;;;;;;;;;4996403;28;20219;-88
2023/01/25 07:00:18;;;;;;;18.47;11.67;;;;;;;;;;4994821;28;20263;-88
2023/01/25 07:02:45;;;;;;;17.23;11.73;;;;;;;;;;4995340;28;20212;-87
2023/01/25 07:05:12;;;;;;;18.57;12.33;;;;;;;;;;4994496;28;20626;-88
2023/01/25 07:07:39;;;;;;;17.47;11.40;;;;;;;;;;4994398;28;20684;-88
2023/01/25 07:10:06;;;;;;;17.33;11.67;;;;;;;;;;4994706;28;20239;-88
2023/01/25 07:12:34;;;;;;;16.67;12.00;;;;;;;;;;4994178;28;20211;-89
2023/01/25 07:15:01;;;;;;;18.20;11.63;;;;;;;;;;4985367;28;20236;-89
2023/01/25 07:17:29;;;;;;;16.07;10.80;;;;;;;;;;4995161;28;20204;-89
2023/01/25 07:19:56;;;;;;;17.20;11.47;;;;;;;;;;4994551;28;20240;-89
2023/01/25 07:22:23;;;;;;;17.07;11.17;;;;;;;;;;4994987;28;20208;-88
2023/01/25 07:24:52;;;;;;;15.87;10.70;;;;;;;;;;4994577;28;20240;-88
2023/01/25 07:27:20;;;;;;;16.93;11.47;;;;;;;;;;5000074;28;20212;-88
2023/01/25 07:29:47;;;;;;;16.90;11.90;;;;;;;;;;4997193;28;20232;-88
2023/01/25 07:32:14;;;;;;;21.20;11.83;;;;;;;;;;4997898;28;20207;-88
2023/01/25 07:34:42;;;;;;;18.03;12.20;;;;;;;;;;4991759;28;20259;-88
2023/01/25 07:37:10;;;;;;;17.73;11.63;;;;;;;;;;4994229;28;20553;-88
2023/01/25 07:39:39;;;;;;;16.67;12.13;;;;;;;;;;4992552;28;20638;-88
2023/01/25 07:42:06;;;;;;;18.93;11.47;;;;;;;;;;4991457;28;20228;-88
2023/01/25 07:44:33;;;;;;;20.60;12.93;;;;;;;;;;4991274;28;20231;-88
2023/01/25 07:47:00;;;;;;;20.90;12.23;;;;;;;;;;4991990;28;20214;-88
2023/01/25 07:49:28;;;;;;;19.87;13.17;;;;;;;;;;4991158;28;20610;-88
2023/01/25 07:51:56;;;;;;;23.10;13.23;;;;;;;;;;4991217;28;20232;-88
2023/01/25 07:54:23;;;;;;;19.73;12.47;;;;;;;;;;4990365;28;20203;-88
2023/01/25 07:56:50;;;;;;;17.90;12.33;;;;;;;;;;4991795;28;20200;-88
2023/01/25 07:59:17;;;;;;;16.10;11.27;;;;;;;;;;4987221;28;20722;-88
2023/01/25 08:01:44;;;;;;;19.47;12.33;;;;;;;;;;4993943;28;20294;-87
2023/01/25 08:04:12;;;;;;;20.23;12.03;;;;;;;;;;4994900;28;20227;-88
2023/01/25 08:06:39;;;;;;;19.53;12.47;;;;;;;;;;4995585;28;20212;-88
2023/01/25 08:09:08;;;;;;;20.30;13.40;;;;;;;;;;4995843;28;20212;-89
2023/01/25 08:11:35;;;;;;;20.07;13.17;;;;;;;;;;4994915;28;20314;-90
2023/01/25 08:14:03;;;;;;;20.67;13.97;;;;;;;;;;4995065;28;20196;-90
2023/01/25 08:16:31;;;;;;;18.47;12.40;;;;;;;;;;4995283;28;20258;-90
2023/01/25 08:18:59;;;;;;;21.03;12.60;;;;;;;;;;4993041;28;20676;-89
2023/01/25 08:21:28;;;;;;;19.27;12.33;;;;;;;;;;4994432;28;20617;-89
2023/01/25 08:23:56;;;;;;;18.77;12.10;;;;;;;;;;4995162;28;20247;-90
2023/01/25 08:26:24;;;;;;;21.33;12.67;;;;;;;;;;4995686;28;20246;-87
2023/01/25 08:28:55;;;;;;;23.50;13.47;;;;;;;;;;4995445;28;20195;-88
2023/01/25 08:31:23;;;;;;;41.17;18.63;;;;;;;;;;4984307;28;20240;-88
2023/01/25 08:33:51;;;;;;;18.03;11.60;;;;;;;;;;4986417;28;20231;-88
2023/01/25 08:36:18;;;;;;;17.33;11.07;;;;;;;;;;4998006;28;20243;-88
2023/01/25 08:38:46;;;;;;;19.30;12.23;;;;;;;;;;4995621;28;20211;-89
2023/01/25 08:41:14;;;;;;;23.20;13.30;;;;;;;;;;4994815;28;20243;-88
2023/01/25 08:43:43;;;;;;;21.00;13.10;;;;;;;;;;4994686;28;20207;-89
2023/01/25 08:46:10;;;;;;;22.83;13.37;;;;;;;;;;4994682;28;20738;-88
2023/01/25 08:48:38;;;;;;;21.73;13.47;;;;;;;;;;4995176;28;20208;-88
2023/01/25 08:51:05;;;;;;;20.77;13.13;;;;;;;;;;4994678;28;20240;-90
2023/01/25 08:53:33;;;;;;;22.60;13.23;;;;;;;;;;4995481;28;20204;-90
2023/01/25 08:56:03;;;;;;;21.70;13.40;;;;;;;;;;4994122;28;20239;-86
2023/01/25 08:58:31;;;;;;;22.70;13.93;;;;;;;;;;4996120;28;20653;-91
2023/01/25 09:01:03;;;;;;;22.40;14.10;;;;;;;;;;4995011;28;20239;-90
2023/01/25 09:03:31;;;;;;;21.33;12.97;;;;;;;;;;4995877;28;20366;-90
2023/01/25 09:05:58;;;;;;;22.73;13.07;;;;;;;;;;4995700;28;20232;-91
2023/01/25 09:08:25;;;;;;;20.80;12.27;;;;;;;;;;4995902;28;20567;-91
2023/01/25 09:10:52;;;;;;;24.53;13.83;;;;;;;;;;4995253;28;20244;-91
2023/01/25 09:13:19;;;;;;;20.03;13.07;;;;;;;;;;4994554;28;20657;-90
2023/01/25 09:15:46;;;;;;;19.07;12.10;;;;;;;;;;4994983;28;20254;-91
2023/01/25 09:18:15;;;;;;;22.17;12.90;;;;;;;;;;4995763;28;20679;-90
2023/01/25 09:20:42;;;;;;;21.10;13.10;;;;;;;;;;4995920;28;20732;-91
2023/01/25 09:23:09;;;;;;;20.00;12.90;;;;;;;;;;4999554;28;20204;-90
2023/01/25 09:25:36;;;;;;;21.33;12.50;;;;;;;;;;5011050;28;20236;-91
2023/01/25 09:28:09;;;;;;;19.90;12.53;;;;;;;;;;5000923;28;20828;-89
2023/01/25 09:30:37;;;;;;;22.00;13.63;;;;;;;;;;4995180;28;20652;-90
2023/01/25 09:33:04;;;;;;;20.73;12.63;;;;;;;;;;4994905;28;20215;-87
2023/01/25 09:35:34;;;;;;;20.17;13.60;;;;;;;;;;4994225;28;20247;-88
2023/01/25 09:38:02;;;;;;;20.60;13.43;;;;;;;;;;4994931;28;20212;-88
2023/01/25 09:40:34;;;;;;;22.10;13.97;;;;;;;;;;4994213;28;20243;-89
2023/01/25 09:43:04;;;;;;;22.03;13.33;;;;;;;;;;4994000;28;20207;-88
2023/01/25 09:45:32;;;;;;;25.20;13.60;;;;;;;;;;4974738;28;20240;-88
2023/01/25 09:48:14;;;;;;;22.03;12.70;;;;;;;;;;4980334;28;20290;-88
2023/01/25 09:50:49;;;;;;;21.10;13.07;;;;;;;;;;4992389;28;20251;-88
2023/01/25 09:53:24;;;;;;;19.13;12.30;;;;;;;;;;4994502;28;20188;-88
2023/01/25 09:55:52;;;;;;;19.60;12.60;;;;;;;;;;4993543;28;20239;-88
2023/01/25 09:58:21;;;;;;;20.93;12.17;;;;;;;;;;4994014;28;20302;-89
2023/01/25 10:00:50;;;;;;;18.83;12.23;;;;;;;;;;4993402;28;20254;-88
2023/01/25 10:03:21;;;;;;;16.27;12.07;;;;;;;;;;4994477;28;20212;-87
2023/01/25 10:05:50;;;;;;;17.50;11.77;;;;;;;;;;4994310;28;20245;-88
2023/01/25 10:08:20;;;;;;;18.97;11.93;;;;;;;;;;4994508;28;20294;-88
2023/01/25 10:10:49;;;;;;;18.17;11.33;;;;;;;;;;4993795;28;20290;-88
2023/01/25 10:13:18;;;;;;;17.17;11.33;;;;;;;;;;5000187;28;20212;-88
2023/01/25 10:15:48;;;;;;;20.20;12.57;;;;;;;;;;5003936;28;20738;-88
2023/01/25 10:18:19;;;;;;;19.63;11.77;;;;;;;;;;5008613;28;20211;-89
2023/01/25 10:20:51;;;;;;;17.47;11.63;;;;;;;;;;5014229;28;20250;-88
2023/01/25 10:23:26;;;;;;;15.63;10.63;;;;;;;;;;5005145;28;20208;-88
2023/01/25 10:25:57;;;;;;;15.87;10.63;;;;;;;;;;5002979;28;20228;-88
2023/01/25 10:28:31;;;;;;;15.90;11.60;;;;;;;;;;4996160;28;20247;-88
2023/01/25 10:31:00;;;;;;;17.97;11.70;;;;;;;;;;4992874;28;20232;-88
2023/01/25 10:33:28;;;;;;;14.67;10.10;;;;;;;;;;4992386;28;20208;-88
2023/01/25 10:35:56;;;;;;;15.63;10.80;;;;;;;;;;4992950;28;20231;-88
2023/01/25 10:38:27;;;;;;;18.03;11.50;;;;;;;;;;4993276;28;20200;-88
2023/01/25 10:40:57;;;;;;;18.60;11.97;;;;;;;;;;4992945;28;20232;-87
2023/01/25 10:43:24;;;;;;;17.53;11.00;;;;;;;;;;4994256;28;20282;-87
2023/01/25 10:45:51;;;;;;;15.63;9.97;;;;;;;;;;5003716;28;20883;-86
2023/01/25 10:48:21;;;;;;;16.90;9.93;;;;;;;;;;5002366;28;20504;-87
2023/01/25 10:50:52;;;;;;;17.27;10.87;;;;;;;;;;4994832;28;20240;-87
2023/01/25 10:53:22;;;;;;;15.87;11.10;;;;;;;;;;4992408;28;20641;-88
2023/01/25 10:55:56;;;;;;;16.83;10.87;;;;;;;;;;4992802;28;20247;-88
2023/01/25 10:58:34;;;;;;;19.97;12.33;;;;;;;;;;4993504;28;20191;-87
2023/01/25 11:01:01;;;;;;;19.40;10.67;;;;;;;;;;5026022;23;20245;-86
2023/01/25 11:03:35;;;;;;;17.03;10.97;;;;;;;;;;5024706;28;20538;-87
2023/01/25 11:06:02;;;;;;;14.77;10.03;;;;;;;;;;5032498;28;20238;-86
2023/01/25 11:08:33;;;;;;;16.13;10.30;;;;;;;;;;5032855;28;20276;-87
2023/01/25 11:11:13;;;;;;;15.43;10.73;;;;;;;;;;5032672;28;20321;-86
2023/01/25 11:13:41;;;;;;;14.53;10.20;;;;;;;;;;5032777;28;20206;-86
2023/01/25 11:16:17;;;;;;;15.73;10.83;;;;;;;;;;5032792;28;20258;-86
2023/01/25 11:18:50;;;;;;;15.43;10.60;;;;;;;;;;5033020;28;20218;-87
2023/01/25 11:21:20;;;;;;;15.50;10.50;;;;;;;;;;5032021;28;20230;-86
2023/01/25 11:23:58;;;;;;;19.73;11.33;;;;;;;;;;5014275;28;20234;-86
2023/01/25 11:26:28;;;;;;;17.40;11.47;;;;;;;;;;5012663;28;20235;-86
2023/01/25 11:29:06;;;;;;;15.17;10.47;;;;;;;;;;5012985;28;20199;-86
2023/01/25 11:31:35;;;;;;;17.23;11.17;;;;;;;;;;5013178;28;20219;-87
2023/01/25 11:34:02;;;;;;;20.07;11.97;;;;;;;;;;5012545;28;20192;-86
2023/01/25 11:36:34;;;;;;;16.47;10.93;;;;;;;;;;5011897;28;20242;-86
2023/01/25 11:39:06;;;;;;;19.13;11.43;;;;;;;;;;5012994;28;20198;-86
2023/01/25 11:41:39;;;;;;;17.53;11.60;;;;;;;;;;5012577;28;20707;-87
2023/01/25 11:44:15;;;;;;;18.57;11.70;;;;;;;;;;5013101;28;20215;-86
2023/01/25 11:46:50;;;;;;;17.57;11.53;;;;;;;;;;5012253;28;20227;-86
2023/01/25 11:49:21;;;;;;;18.20;11.63;;;;;;;;;;5017148;28;20198;-86
2023/01/25 11:51:52;;;;;;;18.63;12.33;;;;;;;;;;5032375;28;20229;-87
2023/01/25 11:54:39;;;;;;;16.47;11.13;;;;;;;;;;5013223;28;20234;-86
2023/01/25 11:57:14;;;;;;;22.77;12.03;;;;;;;;;;5012424;28;20195;-86
2023/01/25 11:59:53;;;;;;;19.60;11.03;;;;;;;;;;5018911;28;20234;-86
2023/01/25 12:02:32;;;;;;;16.93;11.00;;;;;;;;;;5031943;28;20309;-86
2023/01/25 12:05:10;;;;;;;18.63;12.47;;;;;;;;;;5031797;28;20234;-86
2023/01/25 12:07:44;;;;;;;16.03;10.57;;;;;;;;;;5032602;28;20195;-86
2023/01/25 12:10:20;;;;;;;14.33;10.10;;;;;;;;;;5021121;28;20244;-87
2023/01/25 12:12:55;;;;;;;17.70;10.30;;;;;;;;;;5012308;28;20281;-87
2023/01/25 12:15:33;;;;;;;20.80;11.80;;;;;;;;;;5012546;28;20826;-85
2023/01/25 12:18:11;;;;;;;16.63;10.80;;;;;;;;;;5012294;28;20690;-86
2023/01/25 12:20:49;;;;;;;16.87;10.60;;;;;;;;;;5024517;28;20241;-86
2023/01/25 12:23:26;;;;;;;15.40;10.80;;;;;;;;;;5031412;28;20199;-86
2023/01/25 12:25:57;;;;;;;18.90;11.93;;;;;;;;;;5031185;28;20241;-87
2023/01/25 12:28:27;;;;;;;15.07;9.10;;;;;;;;;;5022128;28;20204;-87
2023/01/25 12:30:57;;;;;;;15.47;9.23;;;;;;;;;;5011582;28;20245;-87
2023/01/25 12:33:27;;;;;;;15.33;9.80;;;;;;;;;;5014685;28;20192;-88
2023/01/25 12:35:57;;;;;;;14.00;10.30;;;;;;;;;;5012187;28;20742;-88
2023/01/25 12:38:26;;;;;;;15.73;10.07;;;;;;;;;;5012919;28;20222;-88
2023/01/25 12:40:55;;;;;;;17.27;9.90;;;;;;;;;;5011752;28;20326;-88
2023/01/25 12:43:27;;;;;;;16.23;11.30;;;;;;;;;;5016046;28;20200;-87
2023/01/25 12:45:56;;;;;;;16.73;11.17;;;;;;;;;;5012939;28;20726;-88
2023/01/25 12:48:25;;;;;;;16.20;10.53;;;;;;;;;;5016138;28;20211;-88
2023/01/25 12:50:55;;;;;;;17.07;10.97;;;;;;;;;;5028348;28;20232;-88
2023/01/25 12:53:23;;;;;;;16.47;11.13;;;;;;;;;;5035623;28;20221;-87
2023/01/25 12:56:01;;;;;;;15.67;10.53;;;;;;;;;;5034980;28;20234;-87
2023/01/25 12:58:31;;;;;;;15.60;10.17;;;;;;;;;;5035853;28;20206;-88
2023/01/25 13:01:02;;;;;;;14.33;9.70;;;;;;;;;;5035083;28;20233;-87
2023/01/25 13:03:31;;;;;;;17.40;10.13;;;;;;;;;;5024100;28;20195;-88
2023/01/25 13:06:03;;;;;;;15.33;10.60;;;;;;;;;;5011184;28;20231;-87
2023/01/25 13:08:44;;;;;;;18.00;10.67;;;;;;;;;;5008323;28;20208;-87
2023/01/25 13:11:14;;;;;;;15.47;10.23;;;;;;;;;;5003319;28;20231;-87
2023/01/25 13:13:41;;;;;;;14.60;11.00;;;;;;;;;;5009773;28;20219;-87
2023/01/25 13:19:01;;;;;;;16.77;10.97;;;;;;;;;;5033832;28;20611;-87
2023/01/25 13:21:43;;;;;;;13.50;9.53;;;;;;;;;;5028427;28;20596;-87
2023/01/25 13:24:18;;;;;;;13.70;9.43;;;;;;;;;;5014665;28;20240;-86
2023/01/25 13:26:59;;;;;;;18.70;10.33;;;;;;;;;;5009169;28;20203;-87
2023/01/25 13:29:53;;;;;;;15.27;9.73;;;;;;;;;;5013877;27;20298;-87
2023/01/25 13:32:39;;;;;;;18.73;11.17;;;;;;;;;;5020959;28;20617;-86
2023/01/25 13:35:25;;;;;;;15.83;10.93;;;;;;;;;;5025598;28;20233;-88
2023/01/25 13:37:57;;;;;;;14.93;10.90;;;;;;;;;;5035065;28;20223;-87
2023/01/25 13:40:29;;;;;;;16.60;10.50;;;;;;;;;;5032525;28;20584;-90
2023/01/25 13:43:18;;;;;;;15.23;10.10;;;;;;;;;;5048801;28;20272;-89
2023/01/25 13:45:47;;;;;;;13.20;9.33;;;;;;;;;;5036209;28;20236;-86
2023/01/25 13:48:17;;;;;;;15.90;10.07;;;;;;;;;;5034620;28;20205;-88
2023/01/25 13:50:47;;;;;;;15.50;10.00;;;;;;;;;;5032768;28;20238;-86
2023/01/25 13:53:21;;;;;;;18.47;10.27;;;;;;;;;;5028467;28;20213;-86
2023/01/25 13:55:49;;;;;;;16.33;10.37;;;;;;;;;;5029682;28;20238;-86
2023/01/25 13:58:17;;;;;;;16.53;10.13;;;;;;;;;;5030492;28;20230;-85
2023/01/25 14:00:49;;;;;;;13.97;10.07;;;;;;;;;;5025862;28;20239;-85
2023/01/25 14:03:16;;;;;;;13.73;9.43;;;;;;;;;;5025330;28;20191;-85
2023/01/25 14:05:50;;;;;;;14.17;9.63;;;;;;;;;;5025831;28;20247;-88
2023/01/25 14:08:19;;;;;;;14.87;9.80;;;;;;;;;;5026471;28;20612;-85
2023/01/25 14:10:46;;;;;;;15.40;10.67;;;;;;;;;;5025191;28;20238;-88
2023/01/25 14:13:14;;;;;;;15.67;10.07;;;;;;;;;;5025245;28;20200;-86
2023/01/25 14:15:41;;;;;;;15.73;10.80;;;;;;;;;;5023691;28;20239;-86
2023/01/25 14:18:13;;;;;;;14.67;9.17;;;;;;;;;;5020816;28;20230;-84
2023/01/25 14:20:41;;;;;;;16.53;10.43;;;;;;;;;;5005061;27;20239;-85
2023/01/25 14:23:22;;;;;;;14.90;10.27;;;;;;;;;;5023813;28;20763;-85
2023/01/25 14:25:51;;;;;;;14.30;9.67;;;;;;;;;;5012287;28;20239;-86
2023/01/25 14:28:19;;;;;;;16.37;9.90;;;;;;;;;;5019022;28;20227;-86
2023/01/25 14:30:50;;;;;;;13.13;10.07;;;;;;;;;;5010115;28;20239;-85
2023/01/25 14:33:21;;;;;;;17.80;10.53;;;;;;;;;;5010375;28;20679;-86
2023/01/25 14:35:49;;;;;;;13.37;9.40;;;;;;;;;;5010545;28;20729;-84
2023/01/25 14:38:27;;;;;;;15.27;10.20;;;;;;;;;;4997798;28;20220;-87